»·PEaware :: N2442P KSMO-KSBA

N2442P :: KSMO-KSBA

FLIGHT INFORMATION

Flight Status: Arrived
Operator: Privately registered:
United States
More flights under this callsign
Pilot: Ken Q. (14290)
Aircraft: MOONEY M-20K/M ENCORE BRAVO
(M20T)
More flights by this aircraft type
Origin: KSMO Santa Monica Mun
United States
Destination: KSBA Santa Barbara Mun
United States
More flights between these airports :: More routes between these airports
Route: +KSMO VTU KSBA
File this flight plan on PilotEdge
Remarks: X
Altitude:
(Current/Filed)
4,500ft
Speed:
(Current/Filed)
175kts
Departed: 10-Feb-19 01:06 PM
Arrived: 10-Feb-19 01:44 PM
Distance/Time
Traveled:
73nm/0:38
Distance/Time
To Go:
Arrived

Flight Plot

Page will automatically refresh every two minutes.


Map Options




Map Legend


Flown Route
Filed Route
Departure Airport
Arrival Airport
Navaid (VOR, NDB)
Fix

Horizontal Profiles

Position Reports

Time Latitude Longitude Heading Altitude Ground
Speed
10-Feb-19 12:43 34.018897 -118.446186 317 178ft 0kts
10-Feb-19 12:44 34.018897 -118.446186 317 178ft 0kts
10-Feb-19 12:45 34.018897 -118.446186 317 178ft 0kts
10-Feb-19 12:46 34.018897 -118.446186 317 178ft 0kts
10-Feb-19 12:47 34.018897 -118.446186 317 178ft 0kts
10-Feb-19 12:48 34.018897 -118.446186 317 178ft 0kts
10-Feb-19 12:49 34.018897 -118.446186 317 178ft 0kts
10-Feb-19 12:50 34.018898 -118.446186 317 178ft 0kts
10-Feb-19 12:51 34.018898 -118.446187 317 178ft 0kts
10-Feb-19 12:52 34.018898 -118.446187 317 178ft 0kts
10-Feb-19 12:53 34.018898 -118.446187 317 178ft 0kts
10-Feb-19 12:54 34.018898 -118.446187 317 178ft 0kts
10-Feb-19 12:55 34.018898 -118.446187 317 178ft 0kts
10-Feb-19 12:56 34.018898 -118.446187 317 178ft 0kts
10-Feb-19 12:57 34.018898 -118.446187 317 178ft 0kts
10-Feb-19 12:58 34.018898 -118.446187 317 178ft 0kts
10-Feb-19 12:59 34.018898 -118.446187 317 178ft 0kts
10-Feb-19 13:00 34.018917 -118.446208 317 178ft 1kts
10-Feb-19 13:01 34.019952 -118.445449 5 178ft 0kts
10-Feb-19 13:02 34.019957 -118.445449 5 178ft 0kts
10-Feb-19 13:03 34.019962 -118.445448 5 178ft 0kts
10-Feb-19 13:04 34.020013 -118.445443 5 178ft 4kts
10-Feb-19 13:05 34.010402 -118.457122 221 335ft 102kts
10-Feb-19 13:06 33.985459 -118.482478 222 1021ft 124kts
10-Feb-19 13:07 33.988267 -118.523193 285 1663ft 133kts
10-Feb-19 13:08 33.999246 -118.566770 285 2294ft 137kts
10-Feb-19 13:09 34.010403 -118.612182 285 2700ft 152kts
10-Feb-19 13:10 34.023038 -118.663795 285 2710ft 165kts
10-Feb-19 13:11 34.028069 -118.718990 264 2705ft 166kts
10-Feb-19 13:12 34.022713 -118.774264 262 2701ft 165kts
10-Feb-19 13:13 34.020128 -118.829383 274 2702ft 164kts
10-Feb-19 13:14 34.024752 -118.884232 274 2699ft 163kts
10-Feb-19 13:15 34.029178 -118.934632 275 2603ft 166kts
10-Feb-19 13:16 34.042231 -118.987296 287 2592ft 161kts
10-Feb-19 13:17 34.057960 -119.037291 291 2621ft 158kts
10-Feb-19 13:18 34.080409 -119.083436 301 2619ft 160kts
10-Feb-19 13:19 34.105019 -119.122761 307 2621ft 161kts
10-Feb-19 13:20 34.135088 -119.163066 307 2616ft 161kts
10-Feb-19 13:21 34.166266 -119.202052 311 2606ft 162kts
10-Feb-19 13:22 34.198808 -119.239829 311 2605ft 162kts
10-Feb-19 13:23 34.222311 -119.283133 292 2869ft 147kts
10-Feb-19 13:24 34.240153 -119.327514 290 3103ft 136kts
10-Feb-19 13:25 34.255778 -119.367184 290 3586ft 127kts
10-Feb-19 13:26 34.270923 -119.404955 290 4081ft 123kts
10-Feb-19 13:27 34.285865 -119.442369 290 4497ft 127kts
10-Feb-19 13:28 34.302045 -119.483887 290 4495ft 142kts
10-Feb-19 13:29 34.318948 -119.527407 290 4493ft 143kts
10-Feb-19 13:30 34.334468 -119.567452 290 4498ft 143kts
10-Feb-19 13:31 34.350555 -119.608121 290 4091ft 129kts
10-Feb-19 13:32 34.363343 -119.647952 282 3586ft 125kts
10-Feb-19 13:33 34.369734 -119.686379 268 3055ft 91kts
10-Feb-19 13:34 34.370084 -119.710964 269 2448ft 65kts
10-Feb-19 13:35 34.368516 -119.732307 271 1909ft 64kts
10-Feb-19 13:36 34.386400 -119.733118 0 1400ft 70kts
10-Feb-19 13:37 34.406649 -119.735434 348 1056ft 68kts
10-Feb-19 13:38 34.419880 -119.744845 291 1077ft 62kts
10-Feb-19 13:39 34.425697 -119.766692 298 1036ft 69kts
10-Feb-19 13:40 34.428669 -119.790723 281 750ft 75kts
10-Feb-19 13:41 34.429024 -119.813350 275 403ft 75kts
10-Feb-19 13:42 34.427807 -119.839269 273 13ft 59kts
10-Feb-19 13:43 34.427232 -119.846203 209 13ft 6kts
10-Feb-19 13:44 34.426895 -119.846311 175 13ft 0kts
10-Feb-19 13:45 34.426895 -119.846311 175 13ft 0kts
10-Feb-19 13:46 34.426629 -119.841966 86 13ft 22kts
10-Feb-19 13:47 34.424964 -119.837808 166 13ft 8kts
10-Feb-19 13:48 34.422695 -119.836916 75 13ft 8kts
10-Feb-19 13:49 34.423154 -119.835927 166 13ft 1kts
10-Feb-19 13:50 34.423149 -119.835926 166 13ft 0kts
10-Feb-19 13:51 34.423149 -119.835926 166 13ft 0kts

Navigation Log

Ident Type
Flight plan parsing failed, navigation log unavailable